Latitude: N 50° 09' 49" Longitude: W 05° 11' 53" Elevation: 168m ASL

There are 17 visitors online

Adverts
Latest METAR Data

Below are the latest METARs ("Meteorological Services to Airmen Reports"), for RNAS Culdrose and Newquay Airport.

EGDR - RNAS Culdrose
Distance from station: SW 6mi, 9km
Updated: Thu, 19-Jul-2018 5:50am BST
Partly Cloudy
Partly Cloudy
 Wind from N
Wind: N 3 mph , 6 km/h
Temperature: 55°F , 13°C
Dew Point: 52°F , 11°C
Humidity: 88%
Barometer: 30.09 inHg , 1019 hPa
Clouds: Partly Cloudy
Visibility: 6 miles , 10 km
Cloud details: Few Clouds 1000 ft
Partly Cloudy 4000 ft
2018/07/19 04:50 EGDR 190450Z 35003KT 9999 FEW010 SCT040 13/11 Q1019 BLU
EGHQ - Newquay Airport
Distance from station: NE 21mi, 34km
Updated: Wed, 18-Jul-2018 9:20pm BST
NOT Current
Few Clouds
Few Clouds
 Wind from W
Wind: W 7 mph , 11 km/h
Temperature: 61°F , 16°C
Dew Point: 54°F , 12°C
Humidity: 77%
Barometer: 30.12 inHg , 1020 hPa
Clouds: Few Clouds
Visibility: 6 miles , 10 km
Cloud details: Few Clouds 2500 ft
2018/07/18 20:20 EGHQ 182020Z 27006KT 9999 FEW025 16/12 Q1020
 
EGTE - Exeter Airport
Distance from station: ENE 88mi, 141km
Updated: Thu, 19-Jul-2018 6:50am BST
Clear
Clear
 Wind from ENE
Wind: ENE 2 mph , 4 km/h
Temperature: 54°F , 12°C
Dew Point: 50°F , 10°C
Humidity: 88%
Barometer: 30.12 inHg , 1020 hPa
Summary: Clear
Visibility: greater than 7 miles , 10 km
2018/07/19 05:50 EGTE 190550Z 07002KT CAVOK 12/10 Q1020
EGHE - St Marys, IOS
Distance from station: W 51mi, 82km
Updated: Wed, 18-Jul-2018 5:50pm BST
NOT Current
Few Clouds
Few Clouds
 Wind from WNW
Wind: WNW 6 mph , 9 km/h
Temperature: 68°F , 20°C
Dew Point: 52°F , 11°C
Humidity: 56%
Barometer: 30.09 inHg , 1019 hPa
Clouds: Few Clouds
Visibility: 6 miles , 10 km
Cloud details: Few Clouds 3200 ft
2018/07/18 16:50 EGHE 181650Z 29005KT 9999 FEW032 20/11 Q1019

Metar display script from Saratoga-Weather.org

UK - WEATHER STATION TOPSITES - UK World Weather Websites

This is a private weather station, never base important decisions or events on data from this weather station. Although every effort has been made to make the data as accurate as possible it does not meet MetOffice standards. It is proved as a guide of local weather conditions. We accept no liability for any loss which may arise from use of the data.

Copyright © Carnkie Weather 2009 - 2018.